sensor_id;sensor_type;location;lat;lon;timestamp;P1;durP1;ratioP1;P2;durP2;ratioP2
3407;SDS011;1717;50.240;8.406;2023-08-06T00:00:37;4.40;;;4.00;;
3407;SDS011;1717;50.240;8.406;2023-08-06T00:03:04;4.57;;;4.17;;
3407;SDS011;1717;50.240;8.406;2023-08-06T00:05:31;6.67;;;4.57;;
3407;SDS011;1717;50.240;8.406;2023-08-06T00:07:58;5.10;;;4.30;;
3407;SDS011;1717;50.240;8.406;2023-08-06T00:10:26;5.10;;;4.30;;
3407;SDS011;1717;50.240;8.406;2023-08-06T00:12:53;5.87;;;4.50;;
3407;SDS011;1717;50.240;8.406;2023-08-06T00:15:20;6.47;;;4.50;;
3407;SDS011;1717;50.240;8.406;2023-08-06T00:17:46;4.80;;;4.40;;
3407;SDS011;1717;50.240;8.406;2023-08-06T00:20:13;4.83;;;4.33;;
3407;SDS011;1717;50.240;8.406;2023-08-06T00:22:40;5.30;;;4.30;;
3407;SDS011;1717;50.240;8.406;2023-08-06T00:25:07;4.90;;;4.27;;
3407;SDS011;1717;50.240;8.406;2023-08-06T00:27:36;6.00;;;4.70;;
3407;SDS011;1717;50.240;8.406;2023-08-06T00:30:03;4.50;;;4.10;;
3407;SDS011;1717;50.240;8.406;2023-08-06T00:32:31;5.07;;;4.10;;
3407;SDS011;1717;50.240;8.406;2023-08-06T00:34:57;5.60;;;4.97;;
3407;SDS011;1717;50.240;8.406;2023-08-06T00:37:24;8.03;;;4.40;;
3407;SDS011;1717;50.240;8.406;2023-08-06T00:39:51;4.00;;;3.70;;
3407;SDS011;1717;50.240;8.406;2023-08-06T00:42:18;4.87;;;4.20;;
3407;SDS011;1717;50.240;8.406;2023-08-06T00:44:47;4.60;;;4.20;;
3407;SDS011;1717;50.240;8.406;2023-08-06T00:47:14;4.07;;;3.77;;
3407;SDS011;1717;50.240;8.406;2023-08-06T00:49:41;4.83;;;4.33;;
3407;SDS011;1717;50.240;8.406;2023-08-06T00:52:08;4.83;;;4.43;;
3407;SDS011;1717;50.240;8.406;2023-08-06T00:54:36;4.33;;;3.93;;
3407;SDS011;1717;50.240;8.406;2023-08-06T00:57:03;4.33;;;3.93;;
3407;SDS011;1717;50.240;8.406;2023-08-06T00:59:33;4.57;;;4.17;;
3407;SDS011;1717;50.240;8.406;2023-08-06T01:02:01;4.80;;;4.10;;
3407;SDS011;1717;50.240;8.406;2023-08-06T01:04:28;4.07;;;3.73;;
3407;SDS011;1717;50.240;8.406;2023-08-06T01:06:58;5.20;;;4.63;;
3407;SDS011;1717;50.240;8.406;2023-08-06T01:09:35;3.93;;;3.53;;
3407;SDS011;1717;50.240;8.406;2023-08-06T01:12:28;5.33;;;4.10;;
3407;SDS011;1717;50.240;8.406;2023-08-06T01:15:03;4.60;;;4.00;;
3407;SDS011;1717;50.240;8.406;2023-08-06T01:17:35;4.00;;;3.67;;
3407;SDS011;1717;50.240;8.406;2023-08-06T01:20:02;4.90;;;4.43;;
3407;SDS011;1717;50.240;8.406;2023-08-06T01:22:31;4.33;;;3.93;;
3407;SDS011;1717;50.240;8.406;2023-08-06T01:24:58;6.50;;;4.00;;
3407;SDS011;1717;50.240;8.406;2023-08-06T01:27:26;4.87;;;4.07;;
3407;SDS011;1717;50.240;8.406;2023-08-06T01:30:01;5.30;;;3.67;;
3407;SDS011;1717;50.240;8.406;2023-08-06T01:32:32;4.10;;;3.80;;
3407;SDS011;1717;50.240;8.406;2023-08-06T01:35:01;5.07;;;3.50;;
3407;SDS011;1717;50.240;8.406;2023-08-06T01:37:31;5.90;;;4.30;;
3407;SDS011;1717;50.240;8.406;2023-08-06T01:39:59;5.90;;;4.50;;
3407;SDS011;1717;50.240;8.406;2023-08-06T01:42:26;6.60;;;4.50;;
3407;SDS011;1717;50.240;8.406;2023-08-06T01:44:53;4.20;;;3.80;;
3407;SDS011;1717;50.240;8.406;2023-08-06T01:47:19;4.10;;;3.70;;
3407;SDS011;1717;50.240;8.406;2023-08-06T01:49:46;4.30;;;4.00;;
3407;SDS011;1717;50.240;8.406;2023-08-06T01:52:13;5.03;;;4.63;;
3407;SDS011;1717;50.240;8.406;2023-08-06T01:54:41;3.63;;;3.33;;
3407;SDS011;1717;50.240;8.406;2023-08-06T01:57:08;5.03;;;4.53;;
3407;SDS011;1717;50.240;8.406;2023-08-06T01:59:35;4.90;;;4.50;;
3407;SDS011;1717;50.240;8.406;2023-08-06T02:02:01;4.20;;;3.80;;
3407;SDS011;1717;50.240;8.406;2023-08-06T02:04:28;3.93;;;3.63;;
3407;SDS011;1717;50.240;8.406;2023-08-06T02:06:55;6.53;;;4.10;;
3407;SDS011;1717;50.240;8.406;2023-08-06T02:09:22;5.37;;;4.17;;
3407;SDS011;1717;50.240;8.406;2023-08-06T02:11:50;5.20;;;3.87;;
3407;SDS011;1717;50.240;8.406;2023-08-06T02:14:17;5.37;;;4.60;;
3407;SDS011;1717;50.240;8.406;2023-08-06T02:16:44;5.50;;;3.97;;
3407;SDS011;1717;50.240;8.406;2023-08-06T02:19:10;4.40;;;4.00;;
3407;SDS011;1717;50.240;8.406;2023-08-06T02:21:37;6.00;;;4.67;;
3407;SDS011;1717;50.240;8.406;2023-08-06T02:24:04;5.67;;;4.70;;
3407;SDS011;1717;50.240;8.406;2023-08-06T02:26:31;6.23;;;5.00;;
3407;SDS011;1717;50.240;8.406;2023-08-06T02:28:59;5.70;;;5.07;;
3407;SDS011;1717;50.240;8.406;2023-08-06T02:31:26;5.30;;;4.80;;
3407;SDS011;1717;50.240;8.406;2023-08-06T02:33:52;5.43;;;4.80;;
3407;SDS011;1717;50.240;8.406;2023-08-06T02:36:20;5.90;;;4.50;;
3407;SDS011;1717;50.240;8.406;2023-08-06T02:38:47;5.10;;;4.47;;
3407;SDS011;1717;50.240;8.406;2023-08-06T02:41:13;5.53;;;4.93;;
3407;SDS011;1717;50.240;8.406;2023-08-06T02:43:40;5.40;;;4.53;;
3407;SDS011;1717;50.240;8.406;2023-08-06T02:46:08;5.30;;;4.80;;
3407;SDS011;1717;50.240;8.406;2023-08-06T02:48:35;3.97;;;3.60;;
3407;SDS011;1717;50.240;8.406;2023-08-06T02:51:02;6.23;;;4.30;;
3407;SDS011;1717;50.240;8.406;2023-08-06T02:53:29;5.07;;;4.57;;
3407;SDS011;1717;50.240;8.406;2023-08-06T02:55:56;4.83;;;4.27;;
3407;SDS011;1717;50.240;8.406;2023-08-06T02:58:23;5.00;;;4.20;;
3407;SDS011;1717;50.240;8.406;2023-08-06T03:01:00;5.73;;;4.03;;
3407;SDS011;1717;50.240;8.406;2023-08-06T03:03:30;5.13;;;4.57;;
3407;SDS011;1717;50.240;8.406;2023-08-06T03:05:57;6.37;;;4.60;;
3407;SDS011;1717;50.240;8.406;2023-08-06T03:08:24;5.13;;;4.07;;
3407;SDS011;1717;50.240;8.406;2023-08-06T03:10:51;4.40;;;3.93;;
3407;SDS011;1717;50.240;8.406;2023-08-06T03:13:19;4.67;;;3.90;;
3407;SDS011;1717;50.240;8.406;2023-08-06T03:15:51;4.07;;;3.73;;
3407;SDS011;1717;50.240;8.406;2023-08-06T03:18:19;4.67;;;3.93;;
3407;SDS011;1717;50.240;8.406;2023-08-06T03:20:47;4.87;;;4.37;;
3407;SDS011;1717;50.240;8.406;2023-08-06T03:23:14;4.20;;;3.70;;
3407;SDS011;1717;50.240;8.406;2023-08-06T03:25:41;4.13;;;3.80;;
3407;SDS011;1717;50.240;8.406;2023-08-06T03:28:08;4.47;;;4.03;;
3407;SDS011;1717;50.240;8.406;2023-08-06T03:30:35;3.90;;;3.60;;
3407;SDS011;1717;50.240;8.406;2023-08-06T03:33:02;6.23;;;4.20;;
3407;SDS011;1717;50.240;8.406;2023-08-06T03:35:29;4.50;;;3.93;;
3407;SDS011;1717;50.240;8.406;2023-08-06T03:37:57;4.70;;;3.87;;
3407;SDS011;1717;50.240;8.406;2023-08-06T03:40:23;4.93;;;4.43;;
3407;SDS011;1717;50.240;8.406;2023-08-06T03:42:50;6.17;;;5.00;;
3407;SDS011;1717;50.240;8.406;2023-08-06T03:45:17;4.30;;;3.90;;
3407;SDS011;1717;50.240;8.406;2023-08-06T03:47:44;4.83;;;3.97;;
3407;SDS011;1717;50.240;8.406;2023-08-06T03:50:11;4.57;;;3.70;;
3407;SDS011;1717;50.240;8.406;2023-08-06T03:52:37;5.33;;;3.53;;
3407;SDS011;1717;50.240;8.406;2023-08-06T03:55:06;6.47;;;4.13;;
3407;SDS011;1717;50.240;8.406;2023-08-06T03:57:33;7.27;;;4.17;;
3407;SDS011;1717;50.240;8.406;2023-08-06T03:59:59;5.00;;;4.40;;
3407;SDS011;1717;50.240;8.406;2023-08-06T04:02:26;8.37;;;5.00;;
3407;SDS011;1717;50.240;8.406;2023-08-06T04:04:53;8.03;;;4.30;;
3407;SDS011;1717;50.240;8.406;2023-08-06T04:07:20;5.83;;;4.67;;
3407;SDS011;1717;50.240;8.406;2023-08-06T04:09:53;6.40;;;4.57;;
3407;SDS011;1717;50.240;8.406;2023-08-06T04:12:22;5.40;;;4.60;;
3407;SDS011;1717;50.240;8.406;2023-08-06T04:14:49;9.27;;;4.90;;
3407;SDS011;1717;50.240;8.406;2023-08-06T04:17:17;5.47;;;4.67;;
3407;SDS011;1717;50.240;8.406;2023-08-06T04:19:46;4.97;;;4.20;;
3407;SDS011;1717;50.240;8.406;2023-08-06T04:22:13;4.40;;;4.00;;
3407;SDS011;1717;50.240;8.406;2023-08-06T04:24:41;7.40;;;4.87;;
3407;SDS011;1717;50.240;8.406;2023-08-06T04:27:07;4.90;;;3.83;;
3407;SDS011;1717;50.240;8.406;2023-08-06T04:29:36;7.40;;;4.37;;
3407;SDS011;1717;50.240;8.406;2023-08-06T04:32:03;5.30;;;4.20;;
3407;SDS011;1717;50.240;8.406;2023-08-06T04:34:31;5.30;;;4.80;;
3407;SDS011;1717;50.240;8.406;2023-08-06T04:36:58;5.37;;;4.37;;
3407;SDS011;1717;50.240;8.406;2023-08-06T04:39:25;5.23;;;4.27;;
3407;SDS011;1717;50.240;8.406;2023-08-06T04:41:52;6.27;;;5.40;;
3407;SDS011;1717;50.240;8.406;2023-08-06T04:44:19;4.90;;;4.03;;
3407;SDS011;1717;50.240;8.406;2023-08-06T04:46:48;6.70;;;4.70;;
3407;SDS011;1717;50.240;8.406;2023-08-06T04:49:15;4.47;;;4.03;;
3407;SDS011;1717;50.240;8.406;2023-08-06T04:51:42;4.70;;;3.90;;
3407;SDS011;1717;50.240;8.406;2023-08-06T04:54:09;4.73;;;4.10;;
3407;SDS011;1717;50.240;8.406;2023-08-06T04:56:36;5.60;;;4.23;;
3407;SDS011;1717;50.240;8.406;2023-08-06T04:59:03;5.17;;;4.30;;
3407;SDS011;1717;50.240;8.406;2023-08-06T05:01:29;5.17;;;3.80;;
3407;SDS011;1717;50.240;8.406;2023-08-06T05:03:58;4.13;;;3.73;;
3407;SDS011;1717;50.240;8.406;2023-08-06T05:06:24;5.30;;;3.90;;
3407;SDS011;1717;50.240;8.406;2023-08-06T05:08:51;4.80;;;4.40;;
3407;SDS011;1717;50.240;8.406;2023-08-06T05:11:18;4.30;;;3.43;;
3407;SDS011;1717;50.240;8.406;2023-08-06T05:13:45;4.03;;;3.63;;
3407;SDS011;1717;50.240;8.406;2023-08-06T05:16:11;4.40;;;3.60;;
3407;SDS011;1717;50.240;8.406;2023-08-06T05:18:38;4.13;;;3.73;;
3407;SDS011;1717;50.240;8.406;2023-08-06T05:21:07;3.30;;;2.97;;
3407;SDS011;1717;50.240;8.406;2023-08-06T05:23:34;2.97;;;2.77;;
3407;SDS011;1717;50.240;8.406;2023-08-06T05:26:00;3.23;;;2.93;;
3407;SDS011;1717;50.240;8.406;2023-08-06T05:28:27;3.30;;;3.00;;
3407;SDS011;1717;50.240;8.406;2023-08-06T05:30:54;3.00;;;2.77;;
3407;SDS011;1717;50.240;8.406;2023-08-06T05:33:21;3.70;;;2.60;;
3407;SDS011;1717;50.240;8.406;2023-08-06T05:35:48;2.50;;;2.30;;
3407;SDS011;1717;50.240;8.406;2023-08-06T05:38:17;2.80;;;2.20;;
3407;SDS011;1717;50.240;8.406;2023-08-06T05:40:44;2.93;;;2.67;;
3407;SDS011;1717;50.240;8.406;2023-08-06T05:43:11;2.40;;;2.20;;
3407;SDS011;1717;50.240;8.406;2023-08-06T05:45:37;2.30;;;1.50;;
3407;SDS011;1717;50.240;8.406;2023-08-06T05:48:04;3.00;;;1.90;;
3407;SDS011;1717;50.240;8.406;2023-08-06T05:50:31;2.70;;;2.30;;
3407;SDS011;1717;50.240;8.406;2023-08-06T05:52:58;1.83;;;1.20;;
3407;SDS011;1717;50.240;8.406;2023-08-06T05:55:26;2.53;;;1.67;;
3407;SDS011;1717;50.240;8.406;2023-08-06T05:57:53;1.87;;;1.77;;
3407;SDS011;1717;50.240;8.406;2023-08-06T06:00:20;1.37;;;1.27;;
3407;SDS011;1717;50.240;8.406;2023-08-06T06:02:47;2.57;;;1.33;;
3407;SDS011;1717;50.240;8.406;2023-08-06T06:05:14;1.80;;;1.47;;
3407;SDS011;1717;50.240;8.406;2023-08-06T06:07:41;1.50;;;1.40;;
3407;SDS011;1717;50.240;8.406;2023-08-06T06:10:08;1.63;;;1.20;;
3407;SDS011;1717;50.240;8.406;2023-08-06T06:12:37;1.23;;;0.93;;
3407;SDS011;1717;50.240;8.406;2023-08-06T06:15:05;1.73;;;1.10;;
3407;SDS011;1717;50.240;8.406;2023-08-06T06:17:32;1.20;;;1.10;;
3407;SDS011;1717;50.240;8.406;2023-08-06T06:19:59;1.13;;;1.03;;
3407;SDS011;1717;50.240;8.406;2023-08-06T06:22:26;1.27;;;1.10;;
3407;SDS011;1717;50.240;8.406;2023-08-06T06:24:53;1.67;;;1.20;;
3407;SDS011;1717;50.240;8.406;2023-08-06T06:27:20;1.10;;;1.00;;
3407;SDS011;1717;50.240;8.406;2023-08-06T06:29:48;1.17;;;0.83;;
3407;SDS011;1717;50.240;8.406;2023-08-06T06:32:16;0.90;;;0.60;;
3407;SDS011;1717;50.240;8.406;2023-08-06T06:34:43;1.43;;;0.87;;
3407;SDS011;1717;50.240;8.406;2023-08-06T06:37:10;1.27;;;0.93;;
3407;SDS011;1717;50.240;8.406;2023-08-06T06:39:36;1.27;;;0.90;;
3407;SDS011;1717;50.240;8.406;2023-08-06T06:42:03;1.17;;;1.07;;
3407;SDS011;1717;50.240;8.406;2023-08-06T06:44:31;3.60;;;1.90;;
3407;SDS011;1717;50.240;8.406;2023-08-06T06:46:59;2.37;;;1.60;;
3407;SDS011;1717;50.240;8.406;2023-08-06T06:49:25;1.90;;;1.70;;
3407;SDS011;1717;50.240;8.406;2023-08-06T06:51:52;2.17;;;1.97;;
3407;SDS011;1717;50.240;8.406;2023-08-06T06:54:19;1.30;;;1.20;;
3407;SDS011;1717;50.240;8.406;2023-08-06T06:56:46;1.50;;;1.20;;
3407;SDS011;1717;50.240;8.406;2023-08-06T06:59:13;2.33;;;1.10;;
3407;SDS011;1717;50.240;8.406;2023-08-06T07:01:40;1.73;;;1.00;;
3407;SDS011;1717;50.240;8.406;2023-08-06T07:04:08;1.00;;;0.90;;
3407;SDS011;1717;50.240;8.406;2023-08-06T07:06:35;1.13;;;1.03;;
3407;SDS011;1717;50.240;8.406;2023-08-06T07:09:02;0.90;;;0.90;;
3407;SDS011;1717;50.240;8.406;2023-08-06T07:11:29;0.80;;;0.80;;
3407;SDS011;1717;50.240;8.406;2023-08-06T07:13:56;1.40;;;0.80;;
3407;SDS011;1717;50.240;8.406;2023-08-06T07:16:24;0.60;;;0.50;;
3407;SDS011;1717;50.240;8.406;2023-08-06T07:18:51;1.80;;;1.33;;
3407;SDS011;1717;50.240;8.406;2023-08-06T07:21:20;1.67;;;1.20;;
3407;SDS011;1717;50.240;8.406;2023-08-06T07:23:47;1.00;;;0.90;;
3407;SDS011;1717;50.240;8.406;2023-08-06T07:26:15;1.20;;;1.10;;
3407;SDS011;1717;50.240;8.406;2023-08-06T07:28:42;1.43;;;1.03;;
3407;SDS011;1717;50.240;8.406;2023-08-06T07:31:09;1.20;;;1.10;;
3407;SDS011;1717;50.240;8.406;2023-08-06T07:33:36;1.00;;;0.90;;
3407;SDS011;1717;50.240;8.406;2023-08-06T07:36:10;1.03;;;0.80;;
3407;SDS011;1717;50.240;8.406;2023-08-06T07:38:39;0.80;;;0.80;;
3407;SDS011;1717;50.240;8.406;2023-08-06T07:41:06;1.00;;;0.80;;
3407;SDS011;1717;50.240;8.406;2023-08-06T07:43:34;0.70;;;0.63;;
3407;SDS011;1717;50.240;8.406;2023-08-06T07:46:01;1.13;;;0.90;;
3407;SDS011;1717;50.240;8.406;2023-08-06T07:48:28;1.60;;;0.70;;
3407;SDS011;1717;50.240;8.406;2023-08-06T07:50:55;0.70;;;0.40;;
3407;SDS011;1717;50.240;8.406;2023-08-06T07:53:22;0.50;;;0.43;;
3407;SDS011;1717;50.240;8.406;2023-08-06T07:55:53;0.90;;;0.60;;
3407;SDS011;1717;50.240;8.406;2023-08-06T07:58:20;0.70;;;0.67;;
3407;SDS011;1717;50.240;8.406;2023-08-06T08:00:47;0.60;;;0.50;;
3407;SDS011;1717;50.240;8.406;2023-08-06T08:03:15;1.47;;;0.87;;
3407;SDS011;1717;50.240;8.406;2023-08-06T08:05:42;0.40;;;0.40;;
3407;SDS011;1717;50.240;8.406;2023-08-06T08:08:10;0.70;;;0.70;;
3407;SDS011;1717;50.240;8.406;2023-08-06T08:10:36;0.67;;;0.50;;
3407;SDS011;1717;50.240;8.406;2023-08-06T08:13:05;0.50;;;0.40;;
3407;SDS011;1717;50.240;8.406;2023-08-06T08:15:32;0.70;;;0.60;;
3407;SDS011;1717;50.240;8.406;2023-08-06T08:18:00;0.53;;;0.53;;
3407;SDS011;1717;50.240;8.406;2023-08-06T08:20:27;0.60;;;0.50;;
3407;SDS011;1717;50.240;8.406;2023-08-06T08:22:56;0.50;;;0.40;;
3407;SDS011;1717;50.240;8.406;2023-08-06T08:25:24;0.70;;;0.70;;
3407;SDS011;1717;50.240;8.406;2023-08-06T08:27:51;1.43;;;0.73;;
3407;SDS011;1717;50.240;8.406;2023-08-06T08:30:20;0.77;;;0.50;;
3407;SDS011;1717;50.240;8.406;2023-08-06T08:32:47;0.70;;;0.60;;
3407;SDS011;1717;50.240;8.406;2023-08-06T08:35:14;1.93;;;0.80;;
3407;SDS011;1717;50.240;8.406;2023-08-06T08:37:41;2.10;;;1.90;;
3407;SDS011;1717;50.240;8.406;2023-08-06T08:40:08;1.27;;;1.17;;
3407;SDS011;1717;50.240;8.406;2023-08-06T08:42:36;1.30;;;1.03;;
3407;SDS011;1717;50.240;8.406;2023-08-06T08:45:04;1.50;;;1.17;;
3407;SDS011;1717;50.240;8.406;2023-08-06T08:47:35;4.50;;;1.53;;
3407;SDS011;1717;50.240;8.406;2023-08-06T08:50:03;2.17;;;1.10;;
3407;SDS011;1717;50.240;8.406;2023-08-06T08:52:32;1.13;;;1.07;;
3407;SDS011;1717;50.240;8.406;2023-08-06T08:55:00;1.80;;;1.30;;
3407;SDS011;1717;50.240;8.406;2023-08-06T08:57:29;1.07;;;0.90;;
3407;SDS011;1717;50.240;8.406;2023-08-06T08:59:56;1.20;;;1.03;;
3407;SDS011;1717;50.240;8.406;2023-08-06T09:02:23;1.20;;;1.00;;
3407;SDS011;1717;50.240;8.406;2023-08-06T09:04:56;0.60;;;0.60;;
3407;SDS011;1717;50.240;8.406;2023-08-06T09:07:25;0.90;;;0.90;;
3407;SDS011;1717;50.240;8.406;2023-08-06T09:09:53;1.60;;;1.27;;
3407;SDS011;1717;50.240;8.406;2023-08-06T09:12:20;1.10;;;1.00;;
3407;SDS011;1717;50.240;8.406;2023-08-06T09:14:48;1.40;;;1.03;;
3407;SDS011;1717;50.240;8.406;2023-08-06T09:17:15;0.80;;;0.77;;
3407;SDS011;1717;50.240;8.406;2023-08-06T09:19:44;2.53;;;1.10;;
3407;SDS011;1717;50.240;8.406;2023-08-06T09:22:14;1.10;;;0.80;;
3407;SDS011;1717;50.240;8.406;2023-08-06T09:24:42;2.00;;;0.80;;
3407;SDS011;1717;50.240;8.406;2023-08-06T09:27:12;0.63;;;0.63;;
3407;SDS011;1717;50.240;8.406;2023-08-06T09:29:40;1.90;;;0.90;;
3407;SDS011;1717;50.240;8.406;2023-08-06T09:32:09;1.77;;;0.90;;
3407;SDS011;1717;50.240;8.406;2023-08-06T09:34:35;1.33;;;1.00;;
3407;SDS011;1717;50.240;8.406;2023-08-06T09:37:05;1.80;;;0.87;;
3407;SDS011;1717;50.240;8.406;2023-08-06T09:39:33;1.00;;;1.00;;
3407;SDS011;1717;50.240;8.406;2023-08-06T09:42:01;0.80;;;0.60;;
3407;SDS011;1717;50.240;8.406;2023-08-06T09:44:31;0.70;;;0.70;;
3407;SDS011;1717;50.240;8.406;2023-08-06T09:47:00;1.50;;;0.50;;
3407;SDS011;1717;50.240;8.406;2023-08-06T09:49:28;0.93;;;0.70;;
3407;SDS011;1717;50.240;8.406;2023-08-06T09:52:06;0.73;;;0.70;;
3407;SDS011;1717;50.240;8.406;2023-08-06T09:54:38;0.90;;;0.87;;
3407;SDS011;1717;50.240;8.406;2023-08-06T09:57:05;0.63;;;0.63;;
3407;SDS011;1717;50.240;8.406;2023-08-06T09:59:32;1.33;;;0.60;;
3407;SDS011;1717;50.240;8.406;2023-08-06T10:02:00;0.53;;;0.50;;
3407;SDS011;1717;50.240;8.406;2023-08-06T10:04:28;0.63;;;0.63;;
3407;SDS011;1717;50.240;8.406;2023-08-06T10:06:55;0.67;;;0.67;;
3407;SDS011;1717;50.240;8.406;2023-08-06T10:09:24;0.70;;;0.57;;
3407;SDS011;1717;50.240;8.406;2023-08-06T10:11:52;0.60;;;0.50;;
3407;SDS011;1717;50.240;8.406;2023-08-06T10:14:21;0.80;;;0.60;;
3407;SDS011;1717;50.240;8.406;2023-08-06T10:16:51;1.87;;;0.80;;
3407;SDS011;1717;50.240;8.406;2023-08-06T10:19:19;1.03;;;0.53;;
3407;SDS011;1717;50.240;8.406;2023-08-06T10:24:45;0.70;;;0.50;;
3407;SDS011;1717;50.240;8.406;2023-08-06T10:27:14;0.80;;;0.70;;
3407;SDS011;1717;50.240;8.406;2023-08-06T10:29:47;2.60;;;1.10;;
3407;SDS011;1717;50.240;8.406;2023-08-06T10:32:14;0.60;;;0.50;;
3407;SDS011;1717;50.240;8.406;2023-08-06T10:34:55;0.90;;;0.70;;
3407;SDS011;1717;50.240;8.406;2023-08-06T10:37:23;1.03;;;0.57;;
3407;SDS011;1717;50.240;8.406;2023-08-06T10:39:51;0.60;;;0.57;;
3407;SDS011;1717;50.240;8.406;2023-08-06T10:42:23;0.63;;;0.40;;
3407;SDS011;1717;50.240;8.406;2023-08-06T10:45:13;2.13;;;0.60;;
3407;SDS011;1717;50.240;8.406;2023-08-06T10:47:41;1.00;;;0.50;;
3407;SDS011;1717;50.240;8.406;2023-08-06T10:52:37;0.50;;;0.40;;
3407;SDS011;1717;50.240;8.406;2023-08-06T10:55:04;1.17;;;0.50;;
3407;SDS011;1717;50.240;8.406;2023-08-06T10:57:33;0.70;;;0.50;;
3407;SDS011;1717;50.240;8.406;2023-08-06T11:00:00;0.80;;;0.67;;
3407;SDS011;1717;50.240;8.406;2023-08-06T11:02:28;0.90;;;0.50;;
3407;SDS011;1717;50.240;8.406;2023-08-06T11:05:04;0.67;;;0.67;;
3407;SDS011;1717;50.240;8.406;2023-08-06T11:07:31;1.40;;;0.90;;
3407;SDS011;1717;50.240;8.406;2023-08-06T11:10:00;1.17;;;0.67;;
3407;SDS011;1717;50.240;8.406;2023-08-06T11:12:29;0.87;;;0.80;;
3407;SDS011;1717;50.240;8.406;2023-08-06T11:14:57;0.87;;;0.73;;
3407;SDS011;1717;50.240;8.406;2023-08-06T11:17:24;2.40;;;0.70;;
3407;SDS011;1717;50.240;8.406;2023-08-06T11:19:51;1.90;;;0.70;;
3407;SDS011;1717;50.240;8.406;2023-08-06T11:22:20;0.80;;;0.80;;
3407;SDS011;1717;50.240;8.406;2023-08-06T11:24:47;0.70;;;0.67;;
3407;SDS011;1717;50.240;8.406;2023-08-06T11:27:15;0.83;;;0.70;;
3407;SDS011;1717;50.240;8.406;2023-08-06T11:29:42;1.23;;;0.80;;
3407;SDS011;1717;50.240;8.406;2023-08-06T11:32:11;1.13;;;1.03;;
3407;SDS011;1717;50.240;8.406;2023-08-06T11:34:39;1.50;;;0.97;;
3407;SDS011;1717;50.240;8.406;2023-08-06T11:37:06;1.17;;;1.00;;
3407;SDS011;1717;50.240;8.406;2023-08-06T11:39:33;2.90;;;1.30;;
3407;SDS011;1717;50.240;8.406;2023-08-06T11:42:02;2.57;;;1.13;;
3407;SDS011;1717;50.240;8.406;2023-08-06T11:44:30;0.70;;;0.70;;
3407;SDS011;1717;50.240;8.406;2023-08-06T11:46:58;1.93;;;0.70;;
3407;SDS011;1717;50.240;8.406;2023-08-06T11:49:40;0.70;;;0.60;;
3407;SDS011;1717;50.240;8.406;2023-08-06T11:52:10;0.50;;;0.40;;
3407;SDS011;1717;50.240;8.406;2023-08-06T11:54:39;0.60;;;0.50;;
3407;SDS011;1717;50.240;8.406;2023-08-06T11:57:07;0.50;;;0.50;;
3407;SDS011;1717;50.240;8.406;2023-08-06T11:59:34;0.80;;;0.47;;
3407;SDS011;1717;50.240;8.406;2023-08-06T12:02:03;0.57;;;0.57;;
3407;SDS011;1717;50.240;8.406;2023-08-06T12:04:31;1.57;;;0.50;;
3407;SDS011;1717;50.240;8.406;2023-08-06T12:07:18;0.90;;;0.40;;
3407;SDS011;1717;50.240;8.406;2023-08-06T12:09:45;1.60;;;0.47;;
3407;SDS011;1717;50.240;8.406;2023-08-06T12:12:12;1.17;;;0.60;;
3407;SDS011;1717;50.240;8.406;2023-08-06T12:14:38;1.03;;;0.70;;
3407;SDS011;1717;50.240;8.406;2023-08-06T12:17:05;1.23;;;0.80;;
3407;SDS011;1717;50.240;8.406;2023-08-06T12:19:32;0.80;;;0.80;;
3407;SDS011;1717;50.240;8.406;2023-08-06T12:21:59;1.30;;;0.73;;
3407;SDS011;1717;50.240;8.406;2023-08-06T12:24:27;2.93;;;0.93;;
3407;SDS011;1717;50.240;8.406;2023-08-06T12:26:56;0.80;;;0.77;;
3407;SDS011;1717;50.240;8.406;2023-08-06T12:29:24;0.73;;;0.73;;
3407;SDS011;1717;50.240;8.406;2023-08-06T12:31:51;1.67;;;0.80;;
3407;SDS011;1717;50.240;8.406;2023-08-06T12:34:18;0.80;;;0.67;;
3407;SDS011;1717;50.240;8.406;2023-08-06T12:36:45;0.80;;;0.67;;
3407;SDS011;1717;50.240;8.406;2023-08-06T12:39:12;0.73;;;0.73;;
3407;SDS011;1717;50.240;8.406;2023-08-06T12:41:40;2.23;;;0.60;;
3407;SDS011;1717;50.240;8.406;2023-08-06T12:44:08;1.00;;;0.80;;
3407;SDS011;1717;50.240;8.406;2023-08-06T12:46:35;0.97;;;0.90;;
3407;SDS011;1717;50.240;8.406;2023-08-06T12:49:02;0.87;;;0.57;;
3407;SDS011;1717;50.240;8.406;2023-08-06T12:51:29;0.70;;;0.70;;
3407;SDS011;1717;50.240;8.406;2023-08-06T12:53:56;3.20;;;1.10;;
3407;SDS011;1717;50.240;8.406;2023-08-06T12:56:22;1.27;;;0.97;;
3407;SDS011;1717;50.240;8.406;2023-08-06T12:58:51;1.70;;;1.10;;
3407;SDS011;1717;50.240;8.406;2023-08-06T13:01:17;0.70;;;0.60;;
3407;SDS011;1717;50.240;8.406;2023-08-06T13:03:44;0.90;;;0.80;;
3407;SDS011;1717;50.240;8.406;2023-08-06T13:06:11;1.77;;;0.80;;
3407;SDS011;1717;50.240;8.406;2023-08-06T13:08:38;0.80;;;0.80;;
3407;SDS011;1717;50.240;8.406;2023-08-06T13:11:05;0.77;;;0.77;;
3407;SDS011;1717;50.240;8.406;2023-08-06T13:13:32;1.13;;;0.60;;
3407;SDS011;1717;50.240;8.406;2023-08-06T13:16:00;1.10;;;0.70;;
3407;SDS011;1717;50.240;8.406;2023-08-06T13:18:27;0.83;;;0.60;;
3407;SDS011;1717;50.240;8.406;2023-08-06T13:20:54;1.67;;;0.57;;
3407;SDS011;1717;50.240;8.406;2023-08-06T13:23:21;1.00;;;0.57;;
3407;SDS011;1717;50.240;8.406;2023-08-06T13:25:48;1.10;;;0.60;;
3407;SDS011;1717;50.240;8.406;2023-08-06T13:28:15;1.73;;;0.70;;
3407;SDS011;1717;50.240;8.406;2023-08-06T13:30:42;1.27;;;0.90;;
3407;SDS011;1717;50.240;8.406;2023-08-06T13:33:10;1.63;;;0.70;;
3407;SDS011;1717;50.240;8.406;2023-08-06T13:35:38;0.87;;;0.70;;
3407;SDS011;1717;50.240;8.406;2023-08-06T13:38:05;2.87;;;0.70;;
3407;SDS011;1717;50.240;8.406;2023-08-06T13:40:33;0.93;;;0.60;;
3407;SDS011;1717;50.240;8.406;2023-08-06T13:43:00;0.70;;;0.60;;
3407;SDS011;1717;50.240;8.406;2023-08-06T13:45:27;1.53;;;0.87;;
3407;SDS011;1717;50.240;8.406;2023-08-06T13:47:56;0.73;;;0.73;;
3407;SDS011;1717;50.240;8.406;2023-08-06T13:50:24;1.00;;;0.80;;
3407;SDS011;1717;50.240;8.406;2023-08-06T13:52:52;1.20;;;0.90;;
3407;SDS011;1717;50.240;8.406;2023-08-06T13:55:20;0.53;;;0.53;;
3407;SDS011;1717;50.240;8.406;2023-08-06T13:57:47;1.10;;;0.83;;
3407;SDS011;1717;50.240;8.406;2023-08-06T14:00:14;1.13;;;0.67;;
3407;SDS011;1717;50.240;8.406;2023-08-06T14:02:41;0.80;;;0.60;;
3407;SDS011;1717;50.240;8.406;2023-08-06T14:05:09;1.00;;;0.90;;
3407;SDS011;1717;50.240;8.406;2023-08-06T14:07:38;2.93;;;0.73;;
3407;SDS011;1717;50.240;8.406;2023-08-06T14:10:05;2.90;;;0.90;;
3407;SDS011;1717;50.240;8.406;2023-08-06T14:12:34;0.83;;;0.73;;
3407;SDS011;1717;50.240;8.406;2023-08-06T14:15:01;1.67;;;0.70;;
3407;SDS011;1717;50.240;8.406;2023-08-06T14:17:29;1.83;;;0.73;;
3407;SDS011;1717;50.240;8.406;2023-08-06T14:19:55;0.70;;;0.70;;
3407;SDS011;1717;50.240;8.406;2023-08-06T14:22:22;0.73;;;0.73;;
3407;SDS011;1717;50.240;8.406;2023-08-06T14:24:50;1.10;;;0.87;;
3407;SDS011;1717;50.240;8.406;2023-08-06T14:27:18;1.20;;;1.10;;
3407;SDS011;1717;50.240;8.406;2023-08-06T14:29:45;1.67;;;0.90;;
3407;SDS011;1717;50.240;8.406;2023-08-06T14:32:11;1.00;;;0.90;;
3407;SDS011;1717;50.240;8.406;2023-08-06T14:34:39;2.30;;;0.77;;
3407;SDS011;1717;50.240;8.406;2023-08-06T14:37:06;0.70;;;0.50;;
3407;SDS011;1717;50.240;8.406;2023-08-06T14:39:33;0.83;;;0.77;;
3407;SDS011;1717;50.240;8.406;2023-08-06T14:42:01;1.80;;;0.80;;
3407;SDS011;1717;50.240;8.406;2023-08-06T14:44:29;0.70;;;0.70;;
3407;SDS011;1717;50.240;8.406;2023-08-06T14:46:56;0.70;;;0.70;;
3407;SDS011;1717;50.240;8.406;2023-08-06T14:49:23;0.90;;;0.57;;
3407;SDS011;1717;50.240;8.406;2023-08-06T14:51:50;2.43;;;0.80;;
3407;SDS011;1717;50.240;8.406;2023-08-06T14:54:17;0.80;;;0.80;;
3407;SDS011;1717;50.240;8.406;2023-08-06T14:56:44;1.10;;;0.70;;
3407;SDS011;1717;50.240;8.406;2023-08-06T14:59:12;1.33;;;0.60;;
3407;SDS011;1717;50.240;8.406;2023-08-06T15:01:39;1.13;;;0.80;;
3407;SDS011;1717;50.240;8.406;2023-08-06T15:04:06;1.13;;;0.80;;
3407;SDS011;1717;50.240;8.406;2023-08-06T15:06:32;1.00;;;0.60;;
3407;SDS011;1717;50.240;8.406;2023-08-06T15:08:59;2.00;;;0.80;;
3407;SDS011;1717;50.240;8.406;2023-08-06T15:11:26;1.23;;;0.60;;
3407;SDS011;1717;50.240;8.406;2023-08-06T15:13:53;0.70;;;0.50;;
3407;SDS011;1717;50.240;8.406;2023-08-06T15:16:21;1.53;;;0.83;;
3407;SDS011;1717;50.240;8.406;2023-08-06T15:18:48;0.93;;;0.83;;
3407;SDS011;1717;50.240;8.406;2023-08-06T15:21:15;1.40;;;0.90;;
3407;SDS011;1717;50.240;8.406;2023-08-06T15:23:42;0.80;;;0.70;;